Time;durP1;ratioP1;P1;durP2;ratioP2;P2;SDS_P1;SDS_P2;PMS_P1;PMS_P2;Temp;Humidity;BMP_temperature;BMP_pressure;BME280_temperature;BME280_humidity;BME280_pressure;Samples;Min_cycle;Max_cycle;Signal;HPM_P1;HPM_P2
2022/08/04 00:01:41;;;;;;;12.70;11.33;;;;;;;15.60;100.00;100502.19;1703857;83;20907;-43
2022/08/04 00:04:12;;;;;;;11.73;10.55;;;;;;;15.62;100.00;100504.28;1708455;83;21175;-44
2022/08/04 00:06:56;;;;;;;14.18;11.20;;;;;;;15.62;100.00;100506.06;1707304;83;21014;-43
2022/08/04 00:09:34;;;;;;;13.13;11.53;;;;;;;15.59;100.00;100500.50;1704081;83;20960;-44
2022/08/04 00:12:01;;;;;;;13.43;11.05;;;;;;;15.57;100.00;100503.62;1701861;83;21014;-43
2022/08/04 00:14:30;;;;;;;13.40;10.60;;;;;;;15.52;100.00;100510.31;1677545;83;21047;-43
2022/08/04 00:16:57;;;;;;;13.28;11.03;;;;;;;15.50;100.00;100509.52;1706991;83;21276;-43
2022/08/04 00:19:38;;;;;;;18.23;12.15;;;;;;;15.45;100.00;100515.84;1707511;83;21594;-43
2022/08/04 00:22:08;;;;;;;12.80;11.50;;;;;;;15.40;100.00;100509.92;1708045;83;21069;-43
2022/08/04 00:24:35;;;;;;;17.07;10.98;;;;;;;15.35;100.00;100511.42;1706880;83;21003;-43
2022/08/04 00:27:02;;;;;;;15.88;10.58;;;;;;;15.32;100.00;100504.55;1706088;83;20985;-43
2022/08/04 00:29:30;;;;;;;12.93;10.50;;;;;;;15.29;100.00;100505.14;1708393;83;21273;-43
2022/08/04 00:31:56;;;;;;;12.30;10.43;;;;;;;15.29;100.00;100499.92;1679323;83;20964;-44
2022/08/04 00:34:28;;;;;;;14.45;10.75;;;;;;;15.31;100.00;100500.25;1705714;83;20971;-43
2022/08/04 00:36:55;;;;;;;14.28;11.20;;;;;;;15.29;100.00;100499.45;1705203;81;20960;-44
2022/08/04 00:39:22;;;;;;;20.32;10.95;;;;;;;15.28;100.00;100504.28;1733561;80;20976;-43
2022/08/04 00:42:33;;;;;;;15.55;11.28;;;;;;;15.29;100.00;100499.92;1729507;82;21342;-43
2022/08/04 00:45:31;;;;;;;14.65;11.05;;;;;;;15.28;100.00;100502.11;1672889;84;20971;-43
2022/08/04 00:48:28;;;;;;;16.17;11.80;;;;;;;15.33;100.00;100500.20;1674210;84;21123;-44
2022/08/04 00:51:03;;;;;;;14.50;11.90;;;;;;;15.40;100.00;100513.40;1721214;82;20999;-44
2022/08/04 00:53:37;;;;;;;20.82;12.90;;;;;;;15.46;100.00;100513.16;1733748;82;21493;-43
2022/08/04 00:56:17;;;;;;;13.90;12.10;;;;;;;15.48;100.00;100513.95;1729307;82;21257;-43
2022/08/04 00:59:35;;;;;;;17.20;11.70;;;;;;;15.51;100.00;100508.61;1732715;82;20963;-43
2022/08/04 01:02:23;;;;;;;16.65;12.05;;;;;;;15.56;100.00;100514.13;1731843;82;20975;-43
2022/08/04 01:05:03;;;;;;;14.87;12.45;;;;;;;15.59;100.00;100515.31;1729601;82;20979;-43
2022/08/04 01:08:05;;;;;;;18.50;11.80;;;;;;;15.62;100.00;100517.80;1732865;82;20972;-43
2022/08/04 01:10:44;;;;;;;24.30;13.03;;;;;;;15.65;100.00;100518.98;1729750;82;21392;-43
2022/08/04 01:13:53;;;;;;;20.95;12.98;;;;;;;15.66;100.00;100508.50;1715266;82;20972;-43
2022/08/04 01:16:24;;;;;;;19.07;12.33;;;;;;;15.68;100.00;100503.20;1731824;82;21524;-44
2022/08/04 01:19:01;;;;;;;19.98;12.88;;;;;;;15.74;100.00;100503.43;1732844;82;21513;-43
2022/08/04 01:22:11;;;;;;;13.45;12.13;;;;;;;15.76;100.00;100507.66;1732653;82;21494;-43
2022/08/04 01:25:25;;;;;;;17.50;12.78;;;;;;;15.79;100.00;100503.66;1722168;80;21282;-43
2022/08/04 01:28:36;;;;;;;16.48;12.95;;;;;;;15.83;100.00;100502.22;1728596;82;21023;-43
2022/08/04 01:31:14;;;;;;;16.20;12.55;;;;;;;15.91;100.00;100506.70;1732471;82;21015;-43
2022/08/04 01:33:42;;;;;;;18.27;13.10;;;;;;;15.97;100.00;100504.31;1733035;82;20952;-43
2022/08/04 01:36:09;;;;;;;14.80;13.25;;;;;;;16.02;100.00;100504.97;1733465;82;20996;-44
2022/08/04 01:38:40;;;;;;;19.12;12.37;;;;;;;16.04;100.00;100503.14;1741467;81;21132;-43
2022/08/04 01:41:09;;;;;;;17.00;13.15;;;;;;;16.05;100.00;100504.41;1750771;80;20928;-43
2022/08/04 01:43:42;;;;;;;20.10;12.40;;;;;;;16.06;100.00;100506.09;1749038;81;20949;-43
2022/08/04 01:46:14;;;;;;;15.80;12.10;;;;;;;16.07;100.00;100506.93;1747693;81;21020;-43
2022/08/04 01:48:46;;;;;;;16.67;12.37;;;;;;;16.03;100.00;100502.28;1724463;81;21562;-43
2022/08/04 01:51:13;;;;;;;16.55;12.05;;;;;;;16.01;100.00;100500.19;1749815;81;22015;-44
2022/08/04 01:53:42;;;;;;;15.38;12.80;;;;;;;15.98;100.00;100492.48;1748660;81;20898;-43
2022/08/04 01:56:10;;;;;;;20.88;13.03;;;;;;;15.97;100.00;100495.17;1750714;81;20972;-45
2022/08/04 01:58:39;;;;;;;19.45;12.88;;;;;;;15.97;100.00;100492.56;1749320;80;21027;-44
2022/08/04 02:01:08;;;;;;;19.27;13.85;;;;;;;15.99;100.00;100497.27;1747642;81;21518;-44
2022/08/04 02:03:39;;;;;;;20.65;13.05;;;;;;;16.01;100.00;100494.13;1749731;81;21149;-44
2022/08/04 02:06:26;;;;;;;24.70;14.25;;;;;;;16.04;100.00;100494.87;1750728;81;21036;-44
2022/08/04 02:09:51;;;;;;;28.42;15.63;;;;;;;16.06;100.00;100495.66;1722167;81;21000;-44
2022/08/04 02:12:46;;;;;;;29.40;15.15;;;;;;;16.09;100.00;100492.91;1747788;81;20940;-44
2022/08/04 02:15:45;;;;;;;24.85;15.53;;;;;;;16.15;100.00;100490.95;1748277;81;21019;-44
2022/08/04 02:18:34;;;;;;;25.00;15.50;;;;;;;16.19;100.00;100493.83;1730706;82;21406;-44
2022/08/04 02:21:01;;;;;;;20.48;15.10;;;;;;;16.21;100.00;100488.95;1724900;82;20986;-44
2022/08/04 02:23:40;;;;;;;25.40;17.35;;;;;;;16.25;100.00;100488.81;1742308;81;21016;-44
2022/08/04 02:26:19;;;;;;;23.70;16.95;;;;;;;16.28;100.00;100487.38;1747626;81;21125;-44
2022/08/04 02:29:10;;;;;;;23.62;17.32;;;;;;;16.30;100.00;100492.08;1747926;81;20949;-44
2022/08/04 02:31:52;;;;;;;23.87;17.10;;;;;;;16.32;100.00;100492.42;1750799;81;21275;-44
2022/08/04 02:34:33;;;;;;;25.15;18.20;;;;;;;16.34;100.00;100490.59;1750796;81;21012;-44
2022/08/04 02:37:00;;;;;;;21.23;17.48;;;;;;;16.37;100.00;100490.90;1743401;81;20937;-43
2022/08/04 02:39:32;;;;;;;23.98;17.98;;;;;;;16.38;100.00;100492.16;1749138;81;20984;-43
2022/08/04 02:41:59;;;;;;;26.35;16.97;;;;;;;16.41;100.00;100493.77;1747450;81;20996;-44
2022/08/04 02:44:27;;;;;;;27.58;17.40;;;;;;;16.44;100.00;100495.41;1745553;81;21259;-44
2022/08/04 02:46:54;;;;;;;23.45;16.82;;;;;;;16.47;100.00;100497.45;1748026;81;21617;-44
2022/08/04 02:49:21;;;;;;;29.55;17.23;;;;;;;16.51;100.00;100500.77;1747837;81;20948;-44
2022/08/04 02:51:53;;;;;;;23.55;16.85;;;;;;;16.53;100.00;100498.93;1745406;81;20944;-44
2022/08/04 02:54:41;;;;;;;22.22;16.30;;;;;;;16.55;100.00;100494.96;1746859;81;21016;-44
2022/08/04 02:57:10;;;;;;;28.20;16.85;;;;;;;16.59;100.00;100504.36;1748888;81;21138;-44
2022/08/04 03:00:10;;;;;;;24.98;16.65;;;;;;;16.62;100.00;100502.92;1747133;81;21435;-44
2022/08/04 03:03:04;;;;;;;22.82;16.70;;;;;;;16.64;100.00;100503.26;1748588;81;20984;-45
2022/08/04 03:05:54;;;;;;;24.05;16.37;;;;;;;16.69;100.00;100506.13;1748605;81;20949;-44
2022/08/04 03:08:30;;;;;;;20.95;17.25;;;;;;;16.69;100.00;100501.77;1741818;81;20941;-44
2022/08/04 03:11:08;;;;;;;21.35;17.12;;;;;;;16.72;100.00;100500.77;1748913;81;21798;-44
2022/08/04 03:14:06;;;;;;;22.10;16.67;;;;;;;16.75;100.00;100503.23;1747698;81;20957;-44
2022/08/04 03:17:14;;;;;;;21.87;16.42;;;;;;;16.78;100.00;100505.71;1748154;81;20941;-44
2022/08/04 03:19:59;;;;;;;;;;;;;;;16.81;100.00;100507.74;1744093;81;20997;-43
2022/08/04 03:23:17;;;;;;;26.82;17.17;;;;;;;16.86;100.00;100499.71;1748369;81;20191;-44
2022/08/04 03:26:21;;;;;;;24.65;17.62;;;;;;;16.90;100.00;100505.19;1748814;81;21869;-44
2022/08/04 03:29:13;;;;;;;22.73;17.70;;;;;;;16.95;100.00;100504.52;1745402;81;20996;-44
2022/08/04 03:32:19;;;;;;;23.40;17.25;;;;;;;17.01;100.00;100506.50;1750098;81;20930;-44
2022/08/04 03:35:23;;;;;;;19.97;17.73;;;;;;;17.06;100.00;100511.09;1748955;81;21466;-44
2022/08/04 03:38:17;;;;;;;24.77;18.73;;;;;;;17.09;100.00;100513.09;1735941;81;21015;-44
2022/08/04 03:41:07;;;;;;;22.77;18.73;;;;;;;17.16;100.00;100518.89;1747296;81;22015;-44
2022/08/04 03:43:48;;;;;;;28.55;18.52;;;;;;;17.20;100.00;100514.39;1744400;81;20957;-44
2022/08/04 03:46:27;;;;;;;29.25;18.85;;;;;;;17.24;100.00;100515.47;1744077;81;20984;-44
2022/08/04 03:49:31;;;;;;;26.62;18.60;;;;;;;17.30;100.00;100516.09;1736256;81;21364;-44
2022/08/04 03:53:09;;;;;;;22.15;17.85;;;;;;;17.36;100.00;100521.91;1747030;81;20980;-44
2022/08/04 03:56:00;;;;;;;25.52;19.35;;;;;;;17.38;100.00;100516.14;1749847;81;21147;-44
2022/08/04 03:58:44;;;;;;;24.92;19.27;;;;;;;17.43;100.00;100521.17;1744521;81;21115;-44
2022/08/04 04:01:41;;;;;;;26.87;19.62;;;;;;;17.45;100.00;100518.02;1749496;81;22052;-44
2022/08/04 04:04:17;;;;;;;;;;;;;;;17.49;100.00;100509.58;1744619;81;20956;-44
2022/08/04 04:06:48;;;;;;;;;;;;;;;17.57;100.00;100517.08;1748353;81;20467;-44
2022/08/04 04:09:55;;;;;;;18.98;15.28;;;;;;;17.64;100.00;100517.17;1747797;81;21088;-44
2022/08/04 04:13:17;;;;;;;22.67;16.62;;;;;;;17.66;100.00;100518.77;1748524;81;21015;-44
2022/08/04 04:16:18;;;;;;;26.27;17.05;;;;;;;17.66;100.00;100520.56;1747861;81;20961;-44
2022/08/04 04:19:17;;;;;;;18.98;16.12;;;;;;;17.74;100.00;100513.66;1748537;81;21052;-44
2022/08/04 04:22:16;;;;;;;22.37;17.20;;;;;;;17.74;100.00;100522.82;1747716;81;20933;-43
2022/08/04 04:25:13;;;;;;;26.42;17.73;;;;;;;17.79;100.00;100522.97;1740006;81;22060;-44
2022/08/04 04:28:06;;;;;;;23.67;17.85;;;;;;;17.88;100.00;100526.09;1747040;81;20929;-44
2022/08/04 04:31:02;;;;;;;24.27;17.55;;;;;;;17.93;100.00;100520.99;1747987;81;21027;-44
2022/08/04 04:33:43;;;;;;;30.57;18.60;;;;;;;18.10;100.00;100519.37;1745532;81;21016;-44
2022/08/04 04:36:32;;;;;;;27.42;19.25;;;;;;;18.23;100.00;100516.98;1749502;81;20910;-44
2022/08/04 04:39:55;;;;;;;34.03;20.20;;;;;;;18.29;100.00;100527.16;1748532;81;21310;-43
2022/08/04 04:42:34;;;;;;;34.63;21.17;;;;;;;18.30;100.00;100525.40;1748500;81;20981;-43
2022/08/04 04:45:30;;;;;;;37.95;22.80;;;;;;;18.31;100.00;100526.62;1742552;81;21016;-44
2022/08/04 04:48:43;;;;;;;30.17;21.60;;;;;;;18.32;100.00;100525.72;1734737;81;20996;-44
2022/08/04 04:51:21;;;;;;;29.48;20.27;;;;;;;18.38;100.00;100529.34;1744748;81;21529;-44
2022/08/04 04:55:14;;;;;;;27.80;21.42;;;;;;;18.49;100.00;100530.11;1809701;79;22406;-45
2022/08/04 04:57:41;;;;;;;30.72;20.70;;;;;;;18.50;100.00;100534.88;1769312;80;20936;-45
2022/08/04 05:00:11;;;;;;;23.95;20.50;;;;;;;18.58;100.00;100535.35;1781936;80;22144;-44
2022/08/04 05:03:22;;;;;;;28.55;19.48;;;;;;;18.66;100.00;100536.25;1739992;80;20948;-44
2022/08/04 05:06:17;;;;;;;34.98;20.05;;;;;;;18.77;100.00;100534.39;1771198;80;20973;-43
2022/08/04 05:09:04;;;;;;;27.93;19.62;;;;;;;18.98;100.00;100540.34;1778192;80;20929;-44
2022/08/04 05:12:15;;;;;;;22.87;18.95;;;;;;;19.21;100.00;100533.03;1775473;79;21484;-44
2022/08/04 05:14:46;;;;;;;24.92;18.30;;;;;;;19.39;100.00;100541.68;1775473;79;22243;-44
2022/08/04 05:17:31;;;;;;;20.88;17.92;;;;;;;19.61;100.00;100547.08;1760347;80;20985;-44
2022/08/04 05:20:12;;;;;;;25.15;17.52;;;;;;;19.67;100.00;100550.67;1746336;80;20940;-44
2022/08/04 05:22:54;;;;;;;23.70;18.57;;;;;;;19.62;100.00;100550.08;1753533;80;21054;-45
2022/08/04 05:25:26;;;;;;;19.95;17.77;;;;;;;19.63;100.00;100554.40;1757314;80;21478;-45
2022/08/04 05:28:13;;;;;;;23.42;18.77;;;;;;;19.65;100.00;100552.53;1752441;80;21253;-42
2022/08/04 05:30:49;;;;;;;19.62;17.50;;;;;;;19.70;100.00;100562.31;1721517;81;20938;-44
2022/08/04 05:33:24;;;;;;;26.33;18.73;;;;;;;19.79;100.00;100565.73;1721459;82;21023;-43
2022/08/04 05:35:54;;;;;;;23.85;18.82;;;;;;;19.70;100.00;100565.39;1705001;82;21078;-44
2022/08/04 05:38:29;;;;;;;24.70;18.92;;;;;;;19.62;100.00;100573.70;1686207;83;21059;-44
2022/08/04 05:40:56;;;;;;;23.85;19.50;;;;;;;19.55;100.00;100572.33;1690434;83;22553;-43
2022/08/04 05:43:23;;;;;;;22.65;19.70;;;;;;;19.57;100.00;100566.08;1692118;83;21578;-45
2022/08/04 05:45:50;;;;;;;23.20;18.50;;;;;;;19.59;100.00;100573.88;1695353;83;21209;-43
2022/08/04 05:48:18;;;;;;;30.85;19.90;;;;;;;19.57;100.00;100570.02;1675858;83;20961;-43
2022/08/04 05:50:45;;;;;;;24.80;19.12;;;;;;;19.50;100.00;100571.28;1670910;83;20973;-45
2022/08/04 05:53:12;;;;;;;22.87;18.65;;;;;;;19.51;100.00;100573.81;1692861;83;21082;-45
2022/08/04 05:55:40;;;;;;;24.32;18.87;;;;;;;19.50;100.00;100569.49;1688545;84;21042;-44
2022/08/04 05:58:09;;;;;;;20.92;18.12;;;;;;;19.52;100.00;100569.42;1683171;84;21051;-44
2022/08/04 06:00:37;;;;;;;28.65;19.00;;;;;;;19.60;100.00;100568.53;1685551;84;20972;-44
2022/08/04 06:03:04;;;;;;;20.45;17.20;;;;;;;19.79;100.00;100575.41;1682134;84;21064;-44
2022/08/04 06:05:31;;;;;;;20.68;17.90;;;;;;;20.01;100.00;100569.81;1653009;85;21255;-45
2022/08/04 06:07:58;;;;;;;20.55;17.98;;;;;;;20.13;100.00;100568.76;1714350;83;21596;-42
2022/08/04 06:10:25;;;;;;;20.35;18.15;;;;;;;20.15;100.00;100572.14;1710890;82;20991;-43
2022/08/04 06:12:56;;;;;;;23.80;17.35;;;;;;;20.15;100.00;100576.91;1682017;84;20941;-42
2022/08/04 06:15:23;;;;;;;19.90;17.80;;;;;;;20.15;100.00;100575.59;1690968;83;21031;-44
2022/08/04 06:17:56;;;;;;;20.70;18.10;;;;;;;20.09;100.00;100579.45;1685235;83;22172;-43
2022/08/04 06:20:27;;;;;;;21.95;17.35;;;;;;;20.12;100.00;100581.52;1663552;84;21587;-43
2022/08/04 06:22:56;;;;;;;18.42;16.37;;;;;;;20.14;100.00;100580.96;1743645;81;20929;-44
2022/08/04 06:25:27;;;;;;;20.62;15.98;;;;;;;20.16;100.00;100579.92;1738587;81;20971;-44
2022/08/04 06:27:54;;;;;;;19.52;17.42;;;;;;;20.21;100.00;100580.98;1719576;82;20959;-43
2022/08/04 06:30:24;;;;;;;20.80;18.35;;;;;;;20.26;100.00;100576.30;1742754;81;21903;-43
2022/08/04 06:32:56;;;;;;;25.27;17.87;;;;;;;20.36;100.00;100578.80;1744888;81;21084;-44
2022/08/04 06:35:24;;;;;;;21.30;17.32;;;;;;;20.43;100.00;100584.52;1740134;81;20972;-44
2022/08/04 06:37:52;;;;;;;19.02;17.02;;;;;;;20.51;100.00;100590.66;1740285;80;20957;-44
2022/08/04 06:40:22;;;;;;;20.23;16.70;;;;;;;20.55;100.00;100589.53;1744966;81;20940;-44
2022/08/04 06:42:49;;;;;;;23.95;17.45;;;;;;;20.60;100.00;100587.97;1725219;81;21108;-44
2022/08/04 06:45:17;;;;;;;20.35;17.87;;;;;;;20.60;100.00;100590.14;1741510;81;20940;-44
2022/08/04 06:47:44;;;;;;;20.10;16.97;;;;;;;20.59;100.00;100580.56;1747193;81;21014;-43
2022/08/04 06:50:11;;;;;;;20.70;16.45;;;;;;;20.64;100.00;100583.76;1738071;81;21583;-43
2022/08/04 06:52:38;;;;;;;19.98;17.02;;;;;;;20.63;100.00;100583.38;1741725;82;21087;-43
2022/08/04 06:55:06;;;;;;;19.65;17.60;;;;;;;20.59;100.00;100581.02;1748133;80;21076;-43
2022/08/04 06:57:34;;;;;;;22.13;17.23;;;;;;;20.56;100.00;100578.56;1755892;81;21000;-43
2022/08/04 07:00:09;;;;;;;20.60;17.42;;;;;;;20.56;100.00;100576.77;1747135;80;21071;-44
2022/08/04 07:02:46;;;;;;;24.63;19.52;;;;;;;20.60;100.00;100576.99;1751652;80;20984;-43
2022/08/04 07:05:12;;;;;;;24.72;19.02;;;;;;;20.64;100.00;100582.89;1739240;81;20858;-44
2022/08/04 07:07:40;;;;;;;21.52;17.80;;;;;;;20.70;100.00;100589.59;1745590;80;21994;-43
2022/08/04 07:10:08;;;;;;;22.73;19.12;;;;;;;20.71;100.00;100589.48;1755591;80;21072;-43
2022/08/04 07:12:35;;;;;;;19.57;17.48;;;;;;;20.77;100.00;100584.33;1747347;80;20985;-43
2022/08/04 07:15:04;;;;;;;19.87;17.82;;;;;;;20.81;100.00;100589.36;1714990;80;21689;-43
2022/08/04 07:17:31;;;;;;;21.27;18.12;;;;;;;20.86;100.00;100578.58;1743936;80;21038;-43
2022/08/04 07:19:58;;;;;;;19.75;17.67;;;;;;;20.92;100.00;100586.09;1742817;80;21291;-43
2022/08/04 07:22:26;;;;;;;19.05;17.00;;;;;;;20.94;100.00;100578.95;1714855;82;20941;-43
2022/08/04 07:24:56;;;;;;;18.67;16.30;;;;;;;21.01;100.00;100581.20;1754171;80;21029;-43
2022/08/04 07:27:24;;;;;;;17.10;15.23;;;;;;;21.15;100.00;100576.41;1711821;83;20993;-43
2022/08/04 07:29:53;;;;;;;16.35;14.25;;;;;;;21.31;100.00;100571.91;1746398;80;21333;-43
2022/08/04 07:32:22;;;;;;;18.35;15.90;;;;;;;21.50;100.00;100572.91;1748908;81;22134;-43
2022/08/04 07:34:50;;;;;;;18.42;15.80;;;;;;;21.51;100.00;100575.92;1749689;81;20948;-43
2022/08/04 07:37:17;;;;;;;18.37;15.18;;;;;;;21.43;100.00;100578.20;1741026;81;21037;-43
2022/08/04 07:39:44;;;;;;;19.15;16.95;;;;;;;21.38;100.00;100578.47;1759042;81;20964;-43
2022/08/04 07:42:11;;;;;;;25.95;17.55;;;;;;;21.39;100.00;100581.97;1753656;81;20995;-43
2022/08/04 07:44:38;;;;;;;22.87;18.77;;;;;;;21.42;100.00;100578.28;1759413;81;21292;-43
2022/08/04 07:47:06;;;;;;;20.08;17.95;;;;;;;21.40;100.00;100578.39;1748973;81;21036;-44
2022/08/04 07:49:34;;;;;;;18.67;16.67;;;;;;;21.46;100.00;100579.32;1728871;81;21004;-43
2022/08/04 07:52:02;;;;;;;19.95;16.67;;;;;;;21.52;100.00;100580.24;1755472;80;21027;-43
2022/08/04 07:54:29;;;;;;;17.70;15.58;;;;;;;21.50;100.00;100579.50;1741596;80;21491;-43
2022/08/04 07:56:56;;;;;;;16.55;14.95;;;;;;;21.57;100.00;100584.38;1741690;81;21133;-45
2022/08/04 07:59:23;;;;;;;19.92;15.40;;;;;;;21.68;100.00;100592.48;1734313;81;21029;-43
2022/08/04 08:01:50;;;;;;;16.73;14.95;;;;;;;21.87;100.00;100592.64;1745054;80;20959;-43
2022/08/04 08:04:18;;;;;;;14.43;13.13;;;;;;;22.05;100.00;100595.39;1742222;81;21555;-44
2022/08/04 08:06:45;;;;;;;15.60;13.90;;;;;;;22.30;100.00;100599.06;1753942;81;20933;-43
2022/08/04 08:09:16;;;;;;;15.72;14.05;;;;;;;22.50;100.00;100603.52;1742209;81;21096;-44
2022/08/04 08:11:47;;;;;;;16.02;14.30;;;;;;;22.61;100.00;100604.13;1747503;81;20988;-43
2022/08/04 08:14:15;;;;;;;18.15;14.58;;;;;;;22.68;100.00;100606.26;1743047;81;21049;-44
2022/08/04 08:16:42;;;;;;;18.30;14.38;;;;;;;22.63;100.00;100612.78;1746092;81;20961;-44
2022/08/04 08:19:10;;;;;;;16.57;14.83;;;;;;;22.64;100.00;100614.47;1727895;80;21010;-45
2022/08/04 08:21:37;;;;;;;15.98;14.35;;;;;;;22.78;100.00;100617.50;1745883;81;21229;-44
2022/08/04 08:24:05;;;;;;;15.88;13.38;;;;;;;22.91;100.00;100614.88;1749092;81;21020;-44
2022/08/04 08:26:34;;;;;;;14.00;12.70;;;;;;;23.07;100.00;100619.94;1747463;81;20985;-45
2022/08/04 08:29:02;;;;;;;13.85;12.58;;;;;;;23.20;100.00;100619.48;1721002;81;21032;-44
2022/08/04 08:31:30;;;;;;;13.75;12.50;;;;;;;23.27;100.00;100614.66;1705943;83;20945;-44
2022/08/04 08:33:58;;;;;;;14.00;12.45;;;;;;;23.37;100.00;100614.86;1764476;81;21057;-43
2022/08/04 08:36:36;;;;;;;14.68;12.73;;;;;;;23.47;100.00;100619.84;1749525;80;20947;-44
2022/08/04 08:39:08;;;;;;;16.00;12.93;;;;;;;23.50;100.00;100622.27;1739595;81;21009;-43
2022/08/04 08:42:05;;;;;;;16.48;13.43;;;;;;;23.35;100.00;100616.27;1738000;81;20991;-44
2022/08/04 08:45:03;;;;;;;14.00;12.73;;;;;;;23.32;100.00;100615.63;1751723;81;20964;-43
2022/08/04 08:47:40;;;;;;;;;;;;;;;23.30;100.00;100621.50;1748604;81;21231;-44
2022/08/04 08:50:49;;;;;;;16.80;12.73;;;;;;;23.47;100.00;100618.98;1730621;81;20188;-44
2022/08/04 08:53:45;;;;;;;13.95;12.07;;;;;;;23.58;99.98;100617.77;1705995;84;21083;-43
2022/08/04 08:56:37;;;;;;;15.60;12.28;;;;;;;23.86;100.00;100618.89;1741400;81;21031;-43
2022/08/04 08:59:16;;;;;;;13.83;12.40;;;;;;;24.10;96.25;100618.95;1747223;81;21576;-45
2022/08/04 09:02:30;;;;;;;12.70;11.50;;;;;;;24.26;98.03;100614.70;1739433;81;21281;-44
2022/08/04 09:05:22;;;;;;;16.60;13.58;;;;;;;24.56;97.04;100610.72;1750635;81;20997;-45
2022/08/04 09:08:21;;;;;;;14.30;12.80;;;;;;;24.88;94.15;100611.91;1738605;81;20941;-44
2022/08/04 09:11:14;;;;;;;14.28;12.35;;;;;;;25.09;92.56;100614.70;1738651;81;21041;-44
2022/08/04 09:13:53;;;;;;;14.00;12.65;;;;;;;25.27;92.23;100610.27;1733395;81;20966;-44
2022/08/04 09:16:39;;;;;;;13.43;11.95;;;;;;;25.39;91.69;100607.48;1737477;81;21333;-45
2022/08/04 09:19:21;;;;;;;12.78;11.33;;;;;;;25.57;91.01;100610.15;1735790;81;21065;-45
2022/08/04 09:21:59;;;;;;;13.05;11.40;;;;;;;25.49;90.32;100610.28;1727944;81;20953;-45
2022/08/04 09:24:41;;;;;;;12.88;11.18;;;;;;;25.39;90.10;100610.64;1701553;83;20969;-45
2022/08/04 09:27:21;;;;;;;13.00;11.75;;;;;;;25.24;90.35;100602.92;1683834;83;20917;-45
2022/08/04 09:30:08;;;;;;;12.43;11.22;;;;;;;25.29;91.08;100605.22;1676413;84;22044;-45
2022/08/04 09:32:58;;;;;;;12.90;11.68;;;;;;;25.34;91.94;100608.80;1722886;81;21015;-45
2022/08/04 09:35:49;;;;;;;14.75;12.40;;;;;;;25.31;89.79;100604.61;1735383;81;21021;-45
2022/08/04 09:38:34;;;;;;;12.58;11.25;;;;;;;25.33;88.75;100608.45;1740798;81;21025;-45
2022/08/04 09:41:24;;;;;;;13.13;11.70;;;;;;;25.51;88.90;100612.33;1747203;81;20949;-45
2022/08/04 09:44:26;;;;;;;14.00;11.60;;;;;;;25.64;89.07;100603.38;1740184;81;22277;-45
2022/08/04 09:47:02;;;;;;;12.23;10.95;;;;;;;25.80;86.78;100605.67;1742457;81;20976;-44
2022/08/04 09:49:41;;;;;;;;;;;;;;;25.73;86.16;100614.59;1733796;81;21041;-45
2022/08/04 09:52:31;;;;;;;;;;;;;;;25.80;87.04;100609.14;1742421;81;20153;-45
2022/08/04 09:55:10;;;;;;;;;;;;;;;26.08;86.22;100614.85;1747195;81;20087;-45
2022/08/04 09:57:47;;;;;;;;;;;;;;;26.13;81.64;100613.63;1740723;81;21180;-45
2022/08/04 10:00:15;;;;;;;;;;;;;;;26.18;82.76;100612.82;1750492;81;20428;-45
2022/08/04 10:02:53;;;;;;;;;;;;;;;26.21;83.33;100611.23;1747093;80;20158;-44
2022/08/04 10:05:23;;;;;;;;;;;;;;;26.62;81.48;100608.25;1743240;81;20101;-45
2022/08/04 10:07:55;;;;;;;;;;;;;;;26.69;77.32;100611.23;1739889;81;20198;-44
2022/08/04 10:10:35;;;;;;;;;;;;;;;26.82;80.87;100605.72;1726668;82;21151;-48
2022/08/04 10:13:05;;;;;;;;;;;;;;;27.23;80.14;100594.71;1721342;81;20797;-45
2022/08/04 10:15:39;;;;;;;;;;;;;;;27.49;77.09;100598.70;1640529;84;20109;-44
2022/08/04 10:18:27;;;;;;;;;;;;;;;27.50;76.37;100595.91;1678750;85;20184;-44
2022/08/04 10:21:15;;;;;;;;;;;;;;;27.53;77.37;100593.48;1663085;85;20183;-46
2022/08/04 10:24:08;;;;;;;;;;;;;;;27.33;76.75;100596.08;1684285;84;21293;-45
2022/08/04 10:26:50;;;;;;;;;;;;;;;26.88;76.40;100606.55;1693969;84;20468;-45
2022/08/04 10:29:29;;;;;;;;;;;;;;;26.72;77.85;100604.83;1685348;84;20131;-45
2022/08/04 10:32:01;;;;;;;;;;;;;;;26.87;79.17;100602.72;1693252;84;20106;-44
2022/08/04 10:34:31;;;;;;;;;;;;;;;27.37;78.21;100601.47;1695765;84;20698;-44
2022/08/04 10:37:04;;;;;;;;;;;;;;;27.89;76.33;100593.00;1687132;84;21130;-45
2022/08/04 10:39:34;;;;;;;;;;;;;;;28.32;73.98;100594.95;1666942;84;20105;-45
2022/08/04 10:42:14;;;;;;;;;;;;;;;28.80;70.37;100597.20;1688474;84;20628;-44
2022/08/04 10:44:56;;;;;;;;;;;;;;;28.90;69.28;100594.52;1685506;84;20103;-46
2022/08/04 10:47:25;;;;;;;;;;;;;;;28.84;67.55;100587.93;1676563;84;20138;-45
2022/08/04 10:49:58;;;;;;;;;;;;;;;28.98;70.10;100589.80;1686237;84;21856;-45
2022/08/04 10:52:37;;;;;;;;;;;;;;;29.55;69.24;100585.67;1687455;84;20119;-45
2022/08/04 10:55:20;;;;;;;;;;;;;;;29.96;67.81;100581.27;1691287;84;20453;-46
2022/08/04 10:57:51;;;;;;;;;;;;;;;30.06;64.84;100574.05;1701220;84;20125;-46
2022/08/04 11:00:21;;;;;;;;;;;;;;;29.69;64.00;100579.02;1705994;84;20154;-45
2022/08/04 11:03:00;;;;;;;;;;;;;;;29.38;64.29;100567.30;1695761;84;21016;-45
2022/08/04 11:05:44;;;;;;;;;;;;;;;29.30;66.18;100575.20;1704913;84;20151;-45
2022/08/04 11:08:16;;;;;;;;;;;;;;;29.41;66.94;100572.36;1700252;84;20086;-45
2022/08/04 11:10:58;;;;;;;;;;;;;;;29.44;65.10;100568.56;1702865;84;20279;-45
2022/08/04 11:13:24;;;;;;;;;;;;;;;29.56;66.92;100570.05;1659480;84;20139;-45
2022/08/04 11:15:54;;;;;;;;;;;;;;;29.72;65.74;100580.52;1684301;84;20751;-46
2022/08/04 11:18:37;;;;;;;;;;;;;;;29.86;64.50;100575.16;1708655;83;20504;-46
2022/08/04 11:21:16;;;;;;;;;;;;;;;29.95;63.11;100575.59;1671155;83;20200;-45
2022/08/04 11:23:46;;;;;;;;;;;;;;;29.69;64.32;100583.02;1703504;83;20439;-45
2022/08/04 11:26:20;;;;;;;;;;;;;;;29.19;64.57;100585.09;1702331;83;20130;-45
2022/08/04 11:29:06;;;;;;;;;;;;;;;28.85;66.34;100580.29;1683079;85;21109;-45
2022/08/04 11:31:39;;;;;;;;;;;;;;;28.81;68.47;100581.09;1701197;83;20199;-45
2022/08/04 11:34:21;;;;;;;;;;;;;;;28.58;72.38;100575.72;1696568;84;20099;-46
2022/08/04 11:36:51;;;;;;;;;;;;;;;28.34;71.59;100575.69;1706200;84;20205;-45
2022/08/04 11:39:39;;;;;;;;;;;;;;;27.63;70.07;100574.91;1658608;84;20462;-46
2022/08/04 11:42:24;;;;;;;;;;;;;;;26.81;72.79;100577.49;1682357;84;21125;-46
2022/08/04 11:45:09;;;;;;;;;;;;;;;26.07;75.89;100562.78;1695760;84;20120;-45
2022/08/04 11:47:39;;;;;;;;;;;;;;;25.49;78.17;100555.12;1699059;84;20103;-44
2022/08/04 11:50:24;;;;;;;;;;;;;;;25.16;78.66;100559.47;1701360;83;20124;-44
2022/08/04 11:52:52;;;;;;;;;;;;;;;24.86;78.63;100544.52;1700115;83;20104;-45
2022/08/04 11:55:20;;;;;;;;;;;;;;;24.69;77.31;100549.77;1695270;84;21168;-45
2022/08/04 11:57:47;;;;;;;;;;;;;;;24.59;77.99;100548.80;1679487;84;20102;-45
2022/08/04 12:00:16;;;;;;;;;;;;;;;24.46;77.54;100549.72;1697839;84;20145;-45
2022/08/04 12:02:46;;;;;;;;;;;;;;;24.32;78.03;100550.77;1673353;85;20156;-45
2022/08/04 12:05:13;;;;;;;;;;;;;;;24.23;79.10;100566.02;1683474;84;20115;-45
2022/08/04 12:07:57;;;;;;;;;;;;;;;24.06;79.40;100564.62;1681570;84;21167;-44
2022/08/04 12:10:48;;;;;;;;;;;;;;;23.93;80.92;100568.63;1678300;84;20135;-44
2022/08/04 12:13:30;;;;;;;;;;;;;;;23.86;82.14;100571.33;1683968;84;20125;-43
2022/08/04 12:16:19;;;;;;;;;;;;;;;23.80;82.28;100571.31;1693450;84;20247;-44
2022/08/04 12:18:57;;;;;;;;;;;;;;;23.72;84.08;100574.52;1689684;84;20129;-43